Weather observations for the past three days for
Ionia County Airport
Imperial (Metric)
Date Time (edt) Wind (mph) Vis. (mi.) Weather Sky Cond. Temperature (ºF) Relative Humidity Wind Chill (°F) Heat Index (°F) Pressure Precipitation (in)
Air Dwpt 6 hour altimeter (in) sea level (mb) 1 hr 3 hr 6 hr
Max. Min.
06 04:55 W 8 10.00 Fair CLR 42.8 30.2 61% 39 29.81 0.0
06 04:35 W 7 10.00 Fair CLR 42.8 30.2 61% 39 29.81 0.0
06 04:15 W 6 10.00 Fair CLR 42.8 30.2 61% 40 29.81 0.0
06 03:55 W 6 10.00 Fair CLR 42.8 30.2 61% 40 29.81 0.0
06 03:35 W 5 10.00 Fair CLR 42.8 30.2 61% 41 29.81 0.0
06 03:15 W 7 10.00 Fair CLR 42.8 30.2 61% 39 29.82 0.0
06 02:55 W 6 10.00 Fair CLR 44.6 30.2 57% 42 29.82 0.0
06 02:35 NW 7 10.00 Fair CLR 44.6 30.2 57% 41 29.82 0.0
06 02:15 NW 8 10.00 Fair CLR 44.6 30.2 57% 41 29.83 0.0
06 01:55 NW 6 10.00 Fair CLR 44.6 30.2 51.1 44.6 57% 42 29.82 0.0
06 01:35 W 8 10.00 Fair CLR 44.6 30.2 57% 41 29.83 0.0
06 01:15 W 7 10.00 Fair CLR 44.6 30.2 57% 41 29.82 0.0
06 00:55 W 5 10.00 Fair CLR 46.4 30.2 53% 45 29.81 0.0
06 00:35 W 5 10.00 Fair CLR 46.4 30.2 53% 45 29.81 0.0
06 00:15 W 7 10.00 Fair CLR 46.4 30.2 53% 43 29.81 0.0
05 23:55 W 6 10.00 Fair CLR 46.4 30.2 53% 44 29.8 0.0
05 23:35 W 7 10.00 Fair CLR 46.4 30.2 53% 43 29.81 0.0
05 23:15 W 6 10.00 Fair CLR 46.4 30.2 53% 44 29.81 0.0
05 22:55 W 7 10.00 Fair CLR 46.4 28.4 50% 43 29.8 0.0
05 22:35 W 6 10.00 Fair CLR 46.4 28.4 50% 44 29.8 0.0
05 22:15 W 7 10.00 Fair CLR 46.4 30.2 53% 43 29.79 0.0
05 21:55 W 6 10.00 Fair CLR 46.4 30.2 53% 44 29.78 0.0
05 21:35 W 7 10.00 Fair CLR 48.2 28.4 46% 46 29.78 0.0
05 21:15 W 7 10.00 Fair CLR 48.2 28.4 46% 46 29.78 0.0
05 20:55 W 6 10.00 Fair CLR 50 28.4 43% 48 29.77 0.0
05 20:35 W 7 10.00 Fair CLR 50 28.4 43% 48 29.77 0.0
05 20:15 W 8 10.00 Fair CLR 50 26.6 40% 47 29.77 0.0
05 19:55 W 9 10.00 Fair CLR 51.8 26.6 57.7 51.1 38% 29.77 0.0
05 19:35 W 10 10.00 Fair CLR 51.8 26.6 38% 29.76 0.0
05 19:15 W 12 G 17 10.00 Fair CLR 51.8 26.6 38% 29.76 0.0
05 18:55 W 12 10.00 Fair CLR 51.8 26.6 38% 29.76 0.0
05 18:35 W 14 G 21 10.00 Fair CLR 51.8 28.4 41% 29.76 0.0
05 18:15 W 17 10.00 Fair CLR 51.8 26.6 38% 29.76 0.0
05 17:55 W 17 10.00 Fair CLR 53.6 28.4 38% 29.76 0.0
05 17:35 W 14 G 20 10.00 Fair CLR 53.6 28.4 38% 29.76 0.0
05 17:15 W 14 G 18 10.00 Fair CLR 53.6 26.6 35% 29.76 0.0
05 16:55 W 13 G 20 10.00 Fair CLR 53.6 28.4 38% 29.76 0.0
05 16:35 W 16 G 22 10.00 Fair CLR 53.6 26.6 35% 29.76 0.0
05 16:15 W 17 G 23 10.00 Fair CLR 53.6 28.4 38% 29.77 0.0
05 15:55 W 15 G 23 10.00 Fair CLR 55.4 26.6 33% 29.76 0.0
05 15:35 W 15 10.00 Fair CLR 55.4 26.6 33% 29.76 0.0
05 15:15 W 14 G 23 10.00 Fair CLR 55.4 24.8 31% 29.75 0.0
05 14:55 W 17 G 26 10.00 Fair CLR 57.2 24.8 29% 29.75 0.0
05 14:35 W 15 10.00 Fair CLR 57.2 24.8 29% 29.74 0.0
05 14:15 W 20 G 23 10.00 Fair CLR 57.2 28.4 33% 29.75 0.0
05 13:55 W 13 G 20 10.00 Fair CLR 57.2 28.4 57.9 49.3 33% 29.73 0.0
05 13:35 W 15 G 21 10.00 Fair CLR 55.4 26.6 33% 29.73 0.0
05 13:15 W 14 G 18 10.00 Fair CLR 55.4 28.4 36% 29.72 0.0
05 12:55 W 12 G 18 10.00 Fair CLR 55.4 30.2 38% 29.73 0.0
05 12:35 W 13 10.00 Fair CLR 55.4 32 41% 29.73 0.0
05 12:15 Vrbl 7 10.00 Fair CLR 55.4 35.6 47% 29.73 0.0
05 11:55 W 12 10.00 Fair CLR 53.6 35.6 51% 29.73 0.0
05 11:35 W 13 G 18 10.00 Fair CLR 51.8 37.4 58% 29.74 0.0
05 11:15 NW 12 10.00 Fair CLR 51.8 37.4 58% 29.74 0.0
05 10:55 W 14 10.00 Fair CLR 51.8 37.4 58% 29.73 0.0
05 10:35 W 10 10.00 A Few Clouds FEW034 51.8 39.2 62% 29.73 0.0
05 10:15 W 8 10.00 A Few Clouds FEW095 51.8 37.4 58% 29.71 0.0
05 09:55 W 3 10.00 Mostly Cloudy BKN085 51.8 37.4 58% 29.71 0.0
05 09:35 W 6 10.00 Overcast OVC085 50 37.4 62% 48 29.72 0.0
05 09:15 NW 5 10.00 Overcast BKN085 OVC100 50 37.4 62% 49 29.71 0.0
05 08:55 NW 3 10.00 Mostly Cloudy SCT027 BKN100 BKN120 50 39.2 67% 29.69 0.0
05 08:35 N 7 10.00 Partly Cloudy FEW027 SCT110 50 39.2 67% 48 29.68 0.0
05 08:15 N 3 10.00 Partly Cloudy SCT110 50 39.2 67% 29.67 0.0
05 07:55 N 8 10.00 Fair CLR 50 39.2 59.5 50.4 67% 47 29.67 0.0
05 07:35 NW 8 10.00 Fair CLR 51.8 39.2 62% 29.64 0.0
05 07:15 W 9 10.00 Partly Cloudy SCT110 51.8 39.2 62% 29.64 0.0
05 06:55 W 8 10.00 Mostly Cloudy BKN100 51.8 39.2 62% 29.62 0.0
05 06:35 W 8 10.00 Mostly Cloudy BKN110 51.8 39.2 62% 29.61 0.0
05 06:15 W 10 10.00 Overcast OVC100 51.8 41 67% 29.61 0.0
05 05:55 W 8 10.00 Overcast OVC110 51.8 41 67% 29.59 0.0
05 05:35 SW 10 10.00 Overcast OVC110 51.8 42.8 72% 29.59 0.0
05 05:15 SW 8 10.00 Overcast OVC110 51.8 42.8 72% 29.57 0.0
05 04:55 W 8 10.00 Partly Cloudy SCT110 51.8 44.6 77% 29.57 0.0
05 04:35 W 8 10.00 A Few Clouds FEW110 53.6 42.8 67% 29.56 0.0
05 04:15 W 10 10.00 A Few Clouds FEW100 FEW120 53.6 44.6 72% 29.55 0.0
05 03:55 W 10 10.00 A Few Clouds FEW100 55.4 44.6 67% 29.55 0.0
05 03:35 W 10 10.00 Partly Cloudy SCT100 57.2 44.6 63% 29.54 0.0
05 03:15 W 8 10.00 Mostly Cloudy SCT085 BKN110 57.2 46.4 67% 29.53 0.0
05 02:55 W 12 10.00 Light Rain FEW070 BKN085 BKN120 57.2 50 77% 29.53 0.0
05 02:35 SW 10 10.00 Fair CLR 59 51.8 77% 29.52 0.0
05 02:15 SW 10 10.00 Fair CLR 59 51.8 77% 29.52 0.0
05 01:55 W 9 10.00 A Few Clouds FEW110 59 51.8 72.1 59.7 77% 29.51 0.0
05 01:35 SW 12 10.00 Fair CLR 60.8 51.8 72% 29.52 0.0
05 01:15 SW 14 G 18 10.00 Mostly Cloudy SCT048 BKN060 62.6 51.8 68% 29.51 0.0
05 00:55 SW 15 10.00 Overcast BKN050 OVC080 62.6 51.8 68% 29.51 0.0
05 00:35 SW 13 10.00 Overcast FEW050 OVC080 62.6 50 64% 29.51 0.0
05 00:15 SW 14 10.00 Mostly Cloudy BKN080 BKN090 BKN120 64.4 50 60% 29.5 0.0
04 23:55 SW 15 10.00 Overcast FEW044 OVC090 64.4 50 60% 29.5 0.0
04 23:35 W 14 10.00 Mostly Cloudy BKN090 BKN110 64.4 48.2 56% 29.5 0.0
04 23:15 SW 20 G 23 10.00 A Few Clouds FEW090 FEW120 64.4 48.2 56% 29.47 0.0
04 22:55 SW 16 G 28 10.00 Light Rain OVC090 64.4 51.8 64% 29.46 0.0
04 22:35 SW 25 G 32 10.00 Mostly Cloudy and Breezy BKN100 68 51.8 56% 29.47 0.0
04 22:15 SW 20 G 26 10.00 Fair CLR 68 51.8 56% 29.46 0.0
04 21:55 SW 14 G 26 10.00 Fair CLR 69.8 51.8 53% 29.46 0.0
04 21:35 SW 23 G 30 10.00 Fair and Breezy CLR 69.8 50 50% 29.45 0.0
04 21:15 SW 13 G 21 10.00 Fair CLR 69.8 44.6 40% 29.45 0.0
04 20:55 SW 12 10.00 Fair CLR 69.8 42.8 38% 29.44 0.0
04 20:35 S 9 10.00 Fair CLR 69.8 42.8 38% 29.44 0.0
04 20:15 SW 10 10.00 Fair CLR 71.6 42.8 36% 29.44 0.0
04 19:55 SW 13 10.00 Fair CLR 71.6 42.8 76.6 71.6 36% 29.45 0.0
04 19:35 SW 13 10.00 Fair CLR 71.6 42.8 36% 29.45 0.0
04 19:15 SW 14 10.00 Fair CLR 71.6 42.8 36% 29.46 0.0
04 18:55 SW 20 G 25 10.00 Fair CLR 73.4 42.8 33% 29.47 0.0
04 18:35 SW 21 10.00 Fair and Breezy CLR 73.4 41 31% 29.48 0.0
04 18:15 W 16 G 28 10.00 Fair CLR 73.4 39.2 29% 29.48 0.0
04 17:55 SW 25 G 30 10.00 Fair and Breezy CLR 75.2 41 29% 77 29.49 0.0
04 17:35 SW 24 G 30 10.00 Fair and Breezy CLR 75.2 39.2 27% 77 29.49 0.0
04 17:15 SW 30 G 37 10.00 Fair and Windy CLR 75.2 39.2 27% 77 29.5 0.0
04 16:55 W 26 G 32 10.00 Fair and Windy CLR 75.2 39.2 27% 77 29.5 0.0
04 16:35 W 28 G 31 10.00 Fair and Windy CLR 75.2 39.2 27% 77 29.5 0.0
04 16:15 W 23 G 31 10.00 Fair and Breezy CLR 75.2 37.4 25% 77 29.5 0.0
04 15:55 SW 24 G 30 10.00 Fair and Breezy CLR 75.2 37.4 25% 77 29.51 0.0
04 15:35 SW 24 G 29 10.00 Fair and Breezy CLR 77 37.4 24% 77 29.51 0.0
04 15:15 SW 22 G 29 10.00 Fair and Breezy CLR 77 35.6 22% 77 29.52 0.0
04 14:55 SW 20 G 30 10.00 Fair CLR 75.2 35.6 24% 76 29.52 0.0
04 14:35 SW 23 G 38 10.00 Fair and Breezy CLR 75.2 35.6 24% 76 29.52 0.0
04 14:15 W 26 G 33 10.00 Fair and Windy CLR 75.2 33.8 22% 76 29.53 0.0
04 13:55 SW 30 G 36 10.00 Fair and Windy CLR 75.2 33.8 75.4 49.6 22% 76 29.54 0.0
04 13:35 SW 17 G 25 10.00 Fair CLR 75.2 37.4 25% 77 29.54 0.0
04 13:15 SW 28 G 37 10.00 Fair and Windy CLR 73.4 33.8 23% 29.55 0.0
04 12:55 SW 26 G 37 10.00 Fair and Windy CLR 73.4 33.8 23% 29.56 0.0
04 12:35 SW 24 G 31 10.00 Fair and Breezy CLR 73.4 37.4 27% 29.56 0.0
04 12:15 SW 23 G 30 10.00 Fair and Breezy CLR 71.6 37.4 29% 29.57 0.0
04 11:55 SW 18 G 23 10.00 Fair CLR 69.8 41 35% 29.58 0.0
04 11:35 SW 14 G 22 10.00 Fair CLR 68 42.8 40% 29.59 0.0
04 11:15 SW 12 10.00 Fair CLR 66.2 44.6 46% 29.6 0.0
04 10:55 SW 16 10.00 Fair CLR 64.4 44.6 49% 29.61 0.0
04 10:35 SW 12 10.00 Fair CLR 62.6 44.6 52% 29.61 0.0
04 10:15 SW 12 10.00 Fair CLR 62.6 44.6 52% 29.61 0.0
04 09:55 SW 13 10.00 Fair CLR 60.8 46.4 59% 29.62 0.0
04 09:35 SW 10 10.00 Fair CLR 59 44.6 59% 29.62 0.0
04 09:15 SW 14 10.00 Fair CLR 57.2 44.6 63% 29.63 0.0
04 08:55 SW 10 10.00 Fair CLR 53.6 44.6 72% 29.63 0.0
04 08:35 SW 12 10.00 Fair CLR 51.8 44.6 77% 29.64 0.0
04 08:15 SW 10 10.00 Fair CLR 51.8 42.8 72% 29.63 0.0
04 07:55 S 9 10.00 Fair CLR 50 42.8 50 46.2 76% 47 29.63 0.0
04 07:35 SW 8 10.00 Fair CLR 48.2 42.8 82% 45 29.63 0.0
04 07:15 S 10 10.00 Fair CLR 48.2 42.8 82% 44 29.62 0.0
04 06:55 S 9 10.00 Fair CLR 46.4 41 82% 42 29.62 0.0
04 06:35 S 9 10.00 Fair CLR 46.4 41 82% 42 29.63 0.0
04 06:15 S 7 10.00 Fair CLR 46.4 41 82% 43 29.63 0.0
04 05:55 S 7 10.00 Fair CLR 46.4 41 82% 43 29.63 0.0
04 05:35 S 7 10.00 Fair CLR 46.4 41 82% 43 29.63 0.0
04 05:15 SW 6 10.00 Fair CLR 46.4 41 82% 44 29.63 0.0
04 04:55 SW 7 10.00 Fair CLR 46.4 41 82% 43 29.64 0.0
04 04:35 SW 8 10.00 Fair CLR 48.2 41 76% 45 29.64 0.0
04 04:15 SW 8 10.00 Fair CLR 48.2 42.8 82% 45 29.64 0.0
04 03:55 SW 10 10.00 Fair CLR 48.2 42.8 82% 44 29.64 0.0
04 03:35 SW 9 10.00 Fair CLR 48.2 42.8 82% 45 29.65 0.0
04 03:15 SW 13 10.00 Fair CLR 50 42.8 76% 46 29.65 0.0
04 02:55 SW 12 10.00 Fair CLR 50 41 71% 46 29.66 0.0
04 02:35 SW 9 10.00 Fair CLR 50 41 71% 47 29.67 0.0
04 02:15 SW 13 10.00 Fair CLR 50 41 71% 46 29.67 0.0
04 01:55 SW 13 10.00 Fair CLR 50 41 54.5 49.5 71% 46 29.68 0.0
04 01:35 SW 10 10.00 Fair CLR 50 41 71% 46 29.69 0.0
04 01:15 SW 12 10.00 Fair CLR 50 41 71% 46 29.7 0.0
04 00:55 SW 13 G 20 10.00 Fair CLR 50 41 71% 46 29.7 0.0
04 00:35 SW 13 10.00 Fair CLR 50 41 71% 46 29.71 0.0
04 00:15 SW 13 G 18 10.00 Fair CLR 50 41 71% 46 29.71 0.0
03 23:55 SW 14 10.00 Fair CLR 50 41 71% 45 29.72 0.0
03 23:35 S 15 G 18 10.00 Fair CLR 50 41 71% 45 29.72 0.0
03 23:15 S 13 G 17 10.00 Fair CLR 50 41 71% 46 29.73 0.0
03 22:55 S 10 10.00 Fair CLR 50 39.2 67% 46 29.73 0.0
03 22:35 S 12 10.00 Fair CLR 50 39.2 67% 46 29.73 0.0
03 22:15 S 13 10.00 Fair CLR 50 39.2 67% 46 29.73 0.0
03 21:55 S 12 10.00 A Few Clouds FEW070 51.8 39.2 62% 29.73 0.0
03 21:35 S 10 10.00 A Few Clouds FEW070 51.8 39.2 62% 29.73 0.0
03 21:15 S 12 10.00 Fair CLR 51.8 39.2 62% 29.73 0.0
03 20:55 S 15 10.00 Fair CLR 51.8 39.2 62% 29.73 0.0
03 20:35 S 15 10.00 Fair CLR 53.6 39.2 58% 29.73 0.0
03 20:15 S 14 G 21 10.00 Fair CLR 53.6 39.2 58% 29.74 0.0
03 19:55 S 16 10.00 Fair CLR 55.4 39.2 63.5 54.5 55% 29.74 0.0
03 19:35 SW 16 G 22 10.00 A Few Clouds FEW090 55.4 39.2 55% 29.75 0.0
03 19:15 S 16 G 25 10.00 Mostly Cloudy BKN065 BKN090 55.4 39.2 55% 29.76 0.0
03 18:55 SW 20 10.00 Overcast BKN065 OVC100 55.4 39.2 55% 29.76 0.0
03 18:35 SW 20 G 28 10.00 Mostly Cloudy BKN090 55.4 39.2 55% 29.77 0.0
03 18:15 SW 24 G 30 10.00 Overcast and Breezy OVC090 55.4 39.2 55% 29.78 0.0
03 17:55 SW 16 G 23 10.00 Overcast OVC080 55.4 39.2 55% 29.78 0.0
03 17:35 SW 15 10.00 Overcast OVC080 55.4 39.2 55% 29.78 0.0
03 17:15 SW 17 10.00 Overcast SCT070 OVC080 55.4 39.2 55% 29.79 0.0
03 16:55 SW 25 G 31 10.00 Overcast and Breezy OVC070 55.4 39.2 55% 29.79 0.0
03 16:35 W 30 G 35 10.00 Overcast and Windy OVC080 57.2 37.4 48% 29.8 0.0
03 16:15 W 31 G 38 10.00 Overcast and Windy OVC090 60.8 39.2 45% 29.8 0.0
03 15:55 W 32 G 38 10.00 Overcast and Windy FEW055 OVC090 62.6 39.2 42% 29.8 0.0
03 15:35 W 31 G 38 10.00 Partly Cloudy and Windy SCT055 SCT090 60.8 37.4 42% 29.8 0.0
03 15:15 SW 26 G 36 10.00 A Few Clouds and Windy FEW055 62.6 37.4 39% 29.8 0.0
03 14:55 SW 30 G 38 10.00 A Few Clouds and Windy FEW055 62.6 39.2 42% 29.81 0.0
03 14:35 SW 31 G 36 10.00 Partly Cloudy and Windy SCT055 SCT070 60.8 37.4 42% 29.81 0.0
03 14:15 W 20 G 30 10.00 Mostly Cloudy SCT050 BKN065 BKN085 60.8 37.4 42% 29.82 0.0
03 13:55 SW 25 G 33 10.00 Partly Cloudy and Breezy FEW050 SCT095 62.6 39.2 62.2 44.1 42% 29.83 0.0
03 13:35 SW 25 G 31 10.00 Mostly Cloudy and Breezy SCT055 BKN095 60.8 39.2 45% 29.83 0.0
03 13:15 W 21 G 35 10.00 Overcast and Breezy BKN055 OVC095 59 37.4 45% 29.84 0.0
03 12:35 SW 22 G 31 10.00 Overcast and Breezy OVC095 57.2 33.8 41% 29.86 0.0
03 12:15 W 21 G 29 10.00 Overcast and Breezy OVC085 57.2 35.6 44% 29.87 0.0
03 11:55 W 21 G 26 10.00 Overcast and Breezy OVC085 55.4 33.8 44% 29.88 0.0
03 11:35 SW 20 G 31 10.00 Overcast BKN085 OVC100 55.4 33.8 44% 29.87 0.0
03 11:15 SW 20 G 30 10.00 Partly Cloudy SCT100 57.2 35.6 44% 29.87 0.0
03 10:55 SW 20 G 26 10.00 Mostly Cloudy BKN100 53.6 33.8 47% 29.87 0.0
03 10:35 SW 18 G 29 10.00 Mostly Cloudy BKN100 53.6 33.8 47% 29.88 0.0
03 10:15 SW 23 G 32 10.00 A Few Clouds and Breezy FEW100 53.6 33.8 47% 29.88 0.0
03 09:55 SW 22 G 26 10.00 Partly Cloudy and Breezy FEW080 SCT110 51.8 33.8 50% 29.89 0.0
03 09:35 SW 15 10.00 Overcast SCT090 OVC110 48.2 33.8 58% 43 29.89 0.0
03 09:15 SW 14 10.00 Overcast OVC080 46.4 33.8 62% 41 29.89 0.0
03 08:55 SW 16 G 21 10.00 Mostly Cloudy BKN080 BKN090 46.4 32 57% 40 29.9 0.0
03 08:35 W 17 10.00 Partly Cloudy SCT100 46.4 32 57% 40 29.9 0.0
03 08:15 SW 15 10.00 Fair CLR 46.4 32 57% 41 29.9 0.0
03 07:55 SW 15 10.00 Fair CLR 44.6 32 44.1 38.3 61% 38 29.9 0.0
03 07:35 SW 12 10.00 Fair CLR 42.8 30.2 61% 37 29.9 0.0
03 07:15 SW 12 10.00 Fair CLR 42.8 30.2 61% 37 29.9 0.0
03 06:55 SW 10 10.00 Fair CLR 41 30.2 66% 35 29.9 0.0
03 06:35 SW 12 10.00 Fair CLR 41 28.4 61% 35 29.89 0.0
03 06:15 SW 13 10.00 Fair CLR 41 28.4 61% 34 29.89 0.0
03 05:55 SW 12 10.00 Fair CLR 41 28.4 61% 35 29.9 0.0
03 05:35 SW 10 10.00 Fair CLR 39.2 26.6 61% 33 29.9 0.0
Date Time (edt) Wind (mph) Vis. (mi.) Weather Sky Cond. Air Dwpt Max. Min. Relative Humidity Wind Chill (°F) Heat Index (°F) altimeter (in) sea level (mb) 1 hr 3 hr 6 hr
6 hour
Temperature (ºF) Pressure Precipitation (in)